Time;durP1;ratioP1;P1;durP2;ratioP2;P2;SDS_P1;SDS_P2;PMS_P1;PMS_P2;Temp;Humidity;BMP_temperature;BMP_pressure;BME280_temperature;BME280_humidity;BME280_pressure;Samples;Min_cycle;Max_cycle;Signal;HPM_P1;HPM_P2
2022/09/13 00:02:04;;;;;;;10.55;5.50;;;;;;;;;;4996444;28;89012;-73
2022/09/13 00:04:30;;;;;;;7.45;5.63;;;;;;;;;;4998793;28;88197;-72
2022/09/13 00:06:56;;;;;;;7.72;5.47;;;;;;;;;;4994990;28;89246;-73
2022/09/13 00:09:23;;;;;;;8.38;5.75;;;;;;;;;;4994459;28;88116;-72
2022/09/13 00:11:50;;;;;;;13.13;6.90;;;;;;;;;;4989234;28;89076;-73
2022/09/13 00:14:16;;;;;;;10.05;6.22;;;;;;;;;;4988558;28;88948;-73
2022/09/13 00:16:42;;;;;;;9.18;6.90;;;;;;;;;;4979057;28;88332;-74
2022/09/13 00:19:08;;;;;;;7.40;6.50;;;;;;;;;;4991384;28;88071;-74
2022/09/13 00:21:35;;;;;;;8.02;6.63;;;;;;;;;;5025201;28;89485;-74
2022/09/13 00:24:01;;;;;;;11.38;6.82;;;;;;;;;;4978730;28;88748;-74
2022/09/13 00:26:27;;;;;;;9.43;6.13;;;;;;;;;;4995524;28;89803;-74
2022/09/13 00:28:55;;;;;;;7.78;5.90;;;;;;;;;;5022751;28;88378;-74
2022/09/13 00:31:22;;;;;;;13.55;6.15;;;;;;;;;;4983669;28;89111;-74
2022/09/13 00:33:49;;;;;;;7.40;5.93;;;;;;;;;;4984929;28;89344;-74
2022/09/13 00:36:16;;;;;;;13.02;6.05;;;;;;;;;;4994081;28;88125;-73
2022/09/13 00:38:42;;;;;;;9.10;6.07;;;;;;;;;;4993728;28;88797;-74
2022/09/13 00:41:13;;;;;;;10.60;6.63;;;;;;;;;;4994848;28;91056;-74
2022/09/13 00:43:48;;;;;;;10.02;6.40;;;;;;;;;;4996276;28;88521;-74
2022/09/13 00:46:33;;;;;;;11.75;5.93;;;;;;;;;;4989728;28;88742;-73
2022/09/13 00:49:13;;;;;;;7.90;6.32;;;;;;;;;;4980371;28;88734;-73
2022/09/13 00:51:41;;;;;;;7.85;6.03;;;;;;;;;;4993752;28;89823;-74
2022/09/13 00:54:08;;;;;;;13.38;6.55;;;;;;;;;;4992710;28;89027;-73
2022/09/13 00:56:42;;;;;;;7.20;6.47;;;;;;;;;;5002633;28;88403;-74
2022/09/13 00:59:12;;;;;;;13.65;6.10;;;;;;;;;;4977664;28;88697;-74
2022/09/13 01:01:46;;;;;;;9.87;7.30;;;;;;;;;;4985198;28;89400;-74
2022/09/13 01:04:14;;;;;;;9.90;6.53;;;;;;;;;;4993603;28;88137;-74
2022/09/13 01:06:40;;;;;;;11.20;6.22;;;;;;;;;;4976892;28;88751;-74
2022/09/13 01:09:07;;;;;;;11.25;5.90;;;;;;;;;;4991944;28;89034;-74
2022/09/13 01:11:33;;;;;;;9.50;6.20;;;;;;;;;;4984004;28;88779;-73
2022/09/13 01:14:00;;;;;;;10.00;6.38;;;;;;;;;;4978319;28;89728;-72
2022/09/13 01:16:26;;;;;;;16.25;6.70;;;;;;;;;;4981468;28;88122;-72
2022/09/13 01:18:52;;;;;;;12.40;6.90;;;;;;;;;;4988488;28;88889;-73
2022/09/13 01:21:37;;;;;;;12.68;6.82;;;;;;;;;;5010254;28;88931;-74
2022/09/13 01:24:22;;;;;;;8.10;6.30;;;;;;;;;;4989761;28;88184;-72
2022/09/13 01:27:07;;;;;;;8.55;6.43;;;;;;;;;;4995698;28;88772;-72
2022/09/13 01:29:33;;;;;;;10.02;6.28;;;;;;;;;;4993315;28;89424;-72
2022/09/13 01:32:24;;;;;;;7.82;7.03;;;;;;;;;;4996865;28;88265;-72
2022/09/13 01:34:58;;;;;;;9.73;6.20;;;;;;;;;;4995751;28;88984;-72
2022/09/13 01:37:28;;;;;;;8.52;6.35;;;;;;;;;;4995976;28;88126;-72
2022/09/13 01:40:02;;;;;;;8.13;6.45;;;;;;;;;;4993508;28;88780;-72
2022/09/13 01:42:43;;;;;;;8.93;6.18;;;;;;;;;;4995479;28;89190;-72
2022/09/13 01:45:15;;;;;;;7.90;7.05;;;;;;;;;;4995265;28;88285;-72
2022/09/13 01:47:50;;;;;;;8.10;6.97;;;;;;;;;;4970574;28;88779;-72
2022/09/13 01:50:21;;;;;;;10.63;6.90;;;;;;;;;;4996865;28;89048;-72
2022/09/13 01:52:48;;;;;;;10.35;7.13;;;;;;;;;;4995952;28;88614;-72
2022/09/13 01:55:18;;;;;;;8.73;6.50;;;;;;;;;;4996019;28;88938;-72
2022/09/13 01:57:50;;;;;;;10.97;8.07;;;;;;;;;;4979518;28;88387;-72
2022/09/13 02:00:17;;;;;;;11.02;8.00;;;;;;;;;;4997146;28;88040;-72
2022/09/13 02:02:46;;;;;;;9.48;7.50;;;;;;;;;;4997063;28;89637;-72
2022/09/13 02:05:18;;;;;;;14.93;7.65;;;;;;;;;;4997274;28;88786;-73
2022/09/13 02:08:03;;;;;;;13.38;8.43;;;;;;;;;;4987677;28;89553;-73
2022/09/13 02:10:35;;;;;;;12.00;7.88;;;;;;;;;;4987465;28;89006;-73
2022/09/13 02:13:04;;;;;;;13.60;8.20;;;;;;;;;;4976895;28;88215;-73
2022/09/13 02:15:36;;;;;;;8.70;7.75;;;;;;;;;;4978389;28;89016;-73
2022/09/13 02:18:07;;;;;;;12.98;8.25;;;;;;;;;;4991025;28;91167;-73
2022/09/13 02:20:35;;;;;;;14.82;8.80;;;;;;;;;;4985766;28;90507;-73
2022/09/13 02:23:07;;;;;;;10.13;7.90;;;;;;;;;;4986364;28;88503;-73
2022/09/13 02:25:34;;;;;;;10.63;8.07;;;;;;;;;;4985644;28;88142;-73
2022/09/13 02:28:02;;;;;;;13.15;8.88;;;;;;;;;;4978165;28;89811;-73
2022/09/13 02:30:30;;;;;;;12.82;9.00;;;;;;;;;;4979967;28;90214;-73
2022/09/13 02:33:00;;;;;;;15.10;8.60;;;;;;;;;;4983002;28;87982;-73
2022/09/13 02:35:30;;;;;;;10.70;8.05;;;;;;;;;;4996070;28;88836;-73
2022/09/13 02:37:59;;;;;;;13.93;8.57;;;;;;;;;;4980690;28;88839;-73
2022/09/13 02:40:29;;;;;;;14.20;8.73;;;;;;;;;;4987568;28;88229;-73
2022/09/13 02:42:58;;;;;;;12.13;8.17;;;;;;;;;;4983384;28;89020;-73
2022/09/13 02:45:40;;;;;;;13.83;8.63;;;;;;;;;;4994342;28;88133;-73
2022/09/13 02:48:09;;;;;;;11.20;8.27;;;;;;;;;;4988973;28;88984;-73
2022/09/13 02:50:48;;;;;;;9.13;7.97;;;;;;;;;;4997756;28;89381;-73
2022/09/13 02:53:14;;;;;;;9.75;8.07;;;;;;;;;;4978384;28;88158;-73
2022/09/13 02:55:49;;;;;;;16.25;8.10;;;;;;;;;;4993390;28;89130;-73
2022/09/13 02:58:21;;;;;;;18.13;8.25;;;;;;;;;;4970995;28;90381;-73
2022/09/13 03:00:53;;;;;;;12.60;7.65;;;;;;;;;;4998596;28;88275;-74
2022/09/13 03:03:19;;;;;;;14.70;8.50;;;;;;;;;;4979667;28;88865;-73
2022/09/13 03:05:46;;;;;;;9.98;7.78;;;;;;;;;;4985393;28;88312;-73
2022/09/13 03:08:13;;;;;;;12.63;8.07;;;;;;;;;;4994438;28;89525;-74
2022/09/13 03:10:45;;;;;;;13.65;7.70;;;;;;;;;;4980673;28;89218;-73
2022/09/13 03:13:14;;;;;;;12.55;7.30;;;;;;;;;;4977502;28;88196;-73
2022/09/13 03:15:51;;;;;;;16.35;7.60;;;;;;;;;;4978953;28;88046;-72
2022/09/13 03:18:40;;;;;;;9.40;8.13;;;;;;;;;;4978394;28;89269;-72
2022/09/13 03:21:14;;;;;;;11.43;7.97;;;;;;;;;;4978152;28;88774;-72
2022/09/13 03:23:48;;;;;;;11.30;8.50;;;;;;;;;;4980351;28;89615;-72
2022/09/13 03:26:18;;;;;;;15.43;8.73;;;;;;;;;;4978623;28;88016;-73
2022/09/13 03:29:02;;;;;;;10.93;8.40;;;;;;;;;;4978275;28;89247;-72
2022/09/13 03:31:29;;;;;;;12.25;8.75;;;;;;;;;;4978488;28;89036;-72
2022/09/13 03:33:57;;;;;;;14.82;9.35;;;;;;;;;;4978120;28;89522;-72
2022/09/13 03:36:32;;;;;;;14.57;8.63;;;;;;;;;;4977163;28;89189;-72
2022/09/13 03:39:07;;;;;;;12.35;8.70;;;;;;;;;;4989817;28;88316;-72
2022/09/13 03:41:42;;;;;;;12.10;8.95;;;;;;;;;;4979260;28;88357;-73
2022/09/13 03:44:11;;;;;;;22.42;8.77;;;;;;;;;;4996382;28;89091;-73
2022/09/13 03:46:40;;;;;;;13.57;8.10;;;;;;;;;;4988404;28;89816;-73
2022/09/13 03:49:08;;;;;;;13.35;8.85;;;;;;;;;;4988383;28;88511;-73
2022/09/13 03:51:34;;;;;;;14.77;9.85;;;;;;;;;;4996833;28;90428;-73
2022/09/13 03:54:07;;;;;;;12.40;10.00;;;;;;;;;;4997271;28;90286;-73
2022/09/13 03:56:33;;;;;;;13.43;9.65;;;;;;;;;;4979641;28;89851;-73
2022/09/13 03:59:00;;;;;;;14.05;10.43;;;;;;;;;;4983070;28;88105;-73
2022/09/13 04:01:26;;;;;;;12.90;10.20;;;;;;;;;;5026584;28;89029;-73
2022/09/13 04:03:53;;;;;;;15.00;10.65;;;;;;;;;;4995000;28;89308;-73
2022/09/13 04:06:22;;;;;;;19.30;12.20;;;;;;;;;;4991438;28;89784;-73
2022/09/13 04:08:48;;;;;;;18.08;11.90;;;;;;;;;;4996953;28;89991;-74
2022/09/13 04:11:15;;;;;;;17.55;11.50;;;;;;;;;;4997347;28;89121;-73
2022/09/13 04:13:41;;;;;;;17.60;12.52;;;;;;;;;;5007726;28;90101;-73
2022/09/13 04:16:07;;;;;;;17.38;11.32;;;;;;;;;;4983918;28;89537;-73
2022/09/13 04:18:34;;;;;;;16.55;12.10;;;;;;;;;;4995266;28;89086;-73
2022/09/13 04:21:01;;;;;;;17.25;11.60;;;;;;;;;;4983534;28;91628;-73
2022/09/13 04:23:28;;;;;;;16.45;11.55;;;;;;;;;;4959537;28;89484;-73
2022/09/13 04:26:00;;;;;;;21.70;13.00;;;;;;;;;;4994643;28;89017;-72
2022/09/13 04:28:26;;;;;;;25.02;11.88;;;;;;;;;;4994589;28;89211;-72
2022/09/13 04:30:52;;;;;;;17.33;10.68;;;;;;;;;;4979825;28;89644;-72
2022/09/13 04:33:19;;;;;;;15.55;10.55;;;;;;;;;;4986855;28;90343;-72
2022/09/13 04:35:46;;;;;;;16.20;10.98;;;;;;;;;;4990918;28;89184;-72
2022/09/13 04:38:12;;;;;;;19.10;11.85;;;;;;;;;;4989448;28;89046;-72
2022/09/13 04:40:39;;;;;;;14.15;11.20;;;;;;;;;;4975167;28;90344;-74
2022/09/13 04:43:05;;;;;;;12.80;11.20;;;;;;;;;;4978816;28;89560;-75
2022/09/13 04:45:31;;;;;;;17.23;11.30;;;;;;;;;;4976216;28;89037;-74
2022/09/13 04:47:58;;;;;;;14.75;10.73;;;;;;;;;;4986919;28;90145;-74
2022/09/13 04:50:25;;;;;;;15.07;11.75;;;;;;;;;;4992521;28;89833;-74
2022/09/13 04:52:53;;;;;;;16.70;11.45;;;;;;;;;;4981423;28;89104;-74
2022/09/13 04:55:19;;;;;;;20.30;11.88;;;;;;;;;;4993752;28;89879;-73
2022/09/13 04:57:46;;;;;;;17.25;12.15;;;;;;;;;;4986182;28;89115;-73
2022/09/13 05:00:12;;;;;;;17.77;11.60;;;;;;;;;;4982070;28;90060;-73
2022/09/13 05:02:38;;;;;;;18.65;12.18;;;;;;;;;;4983283;28;89467;-73
2022/09/13 05:05:05;;;;;;;16.15;11.43;;;;;;;;;;4985206;28;89678;-74
2022/09/13 05:07:31;;;;;;;12.50;10.55;;;;;;;;;;4993101;28;90085;-73
2022/09/13 05:09:57;;;;;;;14.68;11.18;;;;;;;;;;4995758;28;90779;-73
2022/09/13 05:12:23;;;;;;;17.10;10.27;;;;;;;;;;5001405;28;90800;-74
2022/09/13 05:14:49;;;;;;;18.85;11.02;;;;;;;;;;5026024;28;90335;-73
2022/09/13 05:17:16;;;;;;;15.02;10.77;;;;;;;;;;4993354;28;89060;-73
2022/09/13 05:19:42;;;;;;;16.52;10.60;;;;;;;;;;4990648;28;90385;-73
2022/09/13 05:22:08;;;;;;;14.40;10.60;;;;;;;;;;4981344;28;89924;-73
2022/09/13 05:24:35;;;;;;;15.43;11.00;;;;;;;;;;4980875;28;90189;-73
2022/09/13 05:27:01;;;;;;;15.73;10.40;;;;;;;;;;4990651;28;90009;-73
2022/09/13 05:29:27;;;;;;;13.30;10.27;;;;;;;;;;4994647;28;89819;-73
2022/09/13 05:31:53;;;;;;;20.23;10.40;;;;;;;;;;4998278;28;89351;-73
2022/09/13 05:34:20;;;;;;;21.60;11.95;;;;;;;;;;5000894;28;89945;-73
2022/09/13 05:36:49;;;;;;;25.30;13.60;;;;;;;;;;4990361;28;89139;-74
2022/09/13 05:39:21;;;;;;;23.83;13.90;;;;;;;;;;4992230;28;90127;-72
2022/09/13 05:42:04;;;;;;;24.02;14.18;;;;;;;;;;4998171;28;89611;-72
2022/09/13 05:44:31;;;;;;;22.17;14.68;;;;;;;;;;4996464;28;89183;-72
2022/09/13 05:46:57;;;;;;;23.73;14.77;;;;;;;;;;4990254;28;90067;-72
2022/09/13 05:49:23;;;;;;;20.23;13.77;;;;;;;;;;4996246;28;89596;-72
2022/09/13 05:51:49;;;;;;;22.67;14.18;;;;;;;;;;4997122;28;89647;-72
2022/09/13 05:54:16;;;;;;;19.88;14.30;;;;;;;;;;4987734;28;90060;-72
2022/09/13 05:56:42;;;;;;;21.75;14.07;;;;;;;;;;4990181;28;89529;-72
2022/09/13 05:59:12;;;;;;;27.63;15.65;;;;;;;;;;4981573;28;90015;-72
2022/09/13 06:01:39;;;;;;;29.85;16.33;;;;;;;;;;4989053;28;90478;-72
2022/09/13 06:04:06;;;;;;;25.25;16.52;;;;;;;;;;4987806;28;93715;-72
2022/09/13 06:06:34;;;;;;;26.35;17.20;;;;;;;;;;5007569;28;93370;-72
2022/09/13 06:09:00;;;;;;;33.97;17.30;;;;;;;;;;4986177;28;93199;-71
2022/09/13 06:11:26;;;;;;;30.85;18.45;;;;;;;;;;4990279;28;93404;-72
2022/09/13 06:13:52;;;;;;;31.42;17.60;;;;;;;;;;5021869;28;94868;-72
2022/09/13 06:16:19;;;;;;;30.13;18.38;;;;;;;;;;4985780;28;95569;-71
2022/09/13 06:18:45;;;;;;;33.45;19.35;;;;;;;;;;4997732;28;95073;-71
2022/09/13 06:21:16;;;;;;;32.65;18.83;;;;;;;;;;4993067;28;93609;-71
2022/09/13 06:23:43;;;;;;;32.25;19.25;;;;;;;;;;4994712;28;95795;-72
2022/09/13 06:26:11;;;;;;;32.72;19.65;;;;;;;;;;4993708;28;92478;-71
2022/09/13 06:28:38;;;;;;;33.50;20.80;;;;;;;;;;4967143;28;93196;-71
2022/09/13 06:31:06;;;;;;;33.88;20.20;;;;;;;;;;4992002;28;93025;-71
2022/09/13 06:33:35;;;;;;;36.47;21.30;;;;;;;;;;4990502;28;92573;-71
2022/09/13 06:36:06;;;;;;;37.28;22.05;;;;;;;;;;4992060;28;93229;-71
2022/09/13 06:38:32;;;;;;;32.45;21.38;;;;;;;;;;4992668;28;95832;-71
2022/09/13 06:41:06;;;;;;;36.40;23.27;;;;;;;;;;4982520;28;92597;-72
2022/09/13 06:43:33;;;;;;;40.85;21.80;;;;;;;;;;4993472;28;92468;-71
2022/09/13 06:46:00;;;;;;;41.33;23.85;;;;;;;;;;4979119;28;92517;-71
2022/09/13 06:48:29;;;;;;;38.85;22.95;;;;;;;;;;4975665;28;93249;-71
2022/09/13 06:50:57;;;;;;;36.97;22.98;;;;;;;;;;4975498;28;93432;-71
2022/09/13 06:53:23;;;;;;;34.67;22.38;;;;;;;;;;4980661;28;92459;-71
2022/09/13 06:55:58;;;;;;;39.17;22.10;;;;;;;;;;4977526;28;93179;-71
2022/09/13 06:58:24;;;;;;;49.90;23.50;;;;;;;;;;4972964;28;93970;-71
2022/09/13 07:00:50;;;;;;;41.92;23.10;;;;;;;;;;4985393;28;92461;-72
2022/09/13 07:03:21;;;;;;;36.80;24.13;;;;;;;;;;4994632;28;94968;-72
2022/09/13 07:05:47;;;;;;;40.47;23.88;;;;;;;;;;4994976;28;92585;-71
2022/09/13 07:08:13;;;;;;;37.42;23.98;;;;;;;;;;4995617;28;93588;-71
2022/09/13 07:10:40;;;;;;;40.38;26.15;;;;;;;;;;4989729;28;93460;-71
2022/09/13 07:13:06;;;;;;;42.22;25.55;;;;;;;;;;4976857;28;92588;-72
2022/09/13 07:15:35;;;;;;;36.05;23.98;;;;;;;;;;4975483;28;93180;-72
2022/09/13 07:18:01;;;;;;;39.33;24.30;;;;;;;;;;4974366;28;94081;-72
2022/09/13 07:20:27;;;;;;;37.70;24.20;;;;;;;;;;4966942;28;94190;-72
2022/09/13 07:22:53;;;;;;;33.90;22.73;;;;;;;;;;4973980;28;92452;-72
2022/09/13 07:25:20;;;;;;;35.78;23.50;;;;;;;;;;4993858;28;93130;-71
2022/09/13 07:27:46;;;;;;;41.50;24.10;;;;;;;;;;4968815;28;95081;-72
2022/09/13 07:30:12;;;;;;;83.43;26.00;;;;;;;;;;4966059;28;94265;-71
2022/09/13 07:32:38;;;;;;;38.92;20.42;;;;;;;;;;4975023;28;92433;-72
2022/09/13 07:35:06;;;;;;;41.67;21.05;;;;;;;;;;4984026;28;93232;-71
2022/09/13 07:37:33;;;;;;;35.58;21.15;;;;;;;;;;4986244;28;93444;-72
2022/09/13 07:39:59;;;;;;;31.52;19.00;;;;;;;;;;4972908;28;92572;-71
2022/09/13 07:42:25;;;;;;;34.22;19.92;;;;;;;;;;4992346;28;93279;-71
2022/09/13 07:44:51;;;;;;;34.05;19.33;;;;;;;;;;5015409;28;93491;-71
2022/09/13 07:47:18;;;;;;;30.17;18.45;;;;;;;;;;4975013;28;92493;-71
2022/09/13 07:49:45;;;;;;;30.65;17.13;;;;;;;;;;4975390;28;94387;-71
2022/09/13 07:52:11;;;;;;;29.13;16.75;;;;;;;;;;4993124;28;94844;-72
2022/09/13 07:54:38;;;;;;;30.15;16.65;;;;;;;;;;4980234;28;95555;-71
2022/09/13 07:57:04;;;;;;;25.40;14.73;;;;;;;;;;4974018;28;93400;-71
2022/09/13 07:59:30;;;;;;;25.13;14.35;;;;;;;;;;4973133;28;94034;-71
2022/09/13 08:01:56;;;;;;;22.27;13.05;;;;;;;;;;4978782;28;93224;-72
2022/09/13 08:04:24;;;;;;;21.02;11.45;;;;;;;;;;4988114;28;93786;-71
2022/09/13 08:06:50;;;;;;;19.85;11.48;;;;;;;;;;5008720;28;93323;-71
2022/09/13 08:09:16;;;;;;;19.38;11.15;;;;;;;;;;5020076;28;92693;-71
2022/09/13 08:11:47;;;;;;;21.15;10.23;;;;;;;;;;4972437;28;92452;-72
2022/09/13 08:14:13;;;;;;;;;;;;;;;;;;4960194;28;94381;-72
2022/09/13 08:16:39;;;;;;;16.02;8.65;;;;;;;;;;4972849;28;126395;-72
2022/09/13 08:19:06;;;;;;;14.02;9.18;;;;;;;;;;4984564;28;92884;-72
2022/09/13 08:21:34;;;;;;;15.55;8.32;;;;;;;;;;4987868;28;93160;-72
2022/09/13 08:24:01;;;;;;;11.45;6.90;;;;;;;;;;4982516;28;94247;-72
2022/09/13 08:26:28;;;;;;;10.93;6.90;;;;;;;;;;4995241;28;92459;-72
2022/09/13 08:28:58;;;;;;;8.93;5.63;;;;;;;;;;4978818;28;93725;-72
2022/09/13 08:31:24;;;;;;;;;;;;;;;;;;4981463;28;93620;-72
2022/09/13 08:33:52;;;;;;;8.52;4.57;;;;;;;;;;4977317;28;123888;-72
2022/09/13 08:36:18;;;;;;;8.13;4.68;;;;;;;;;;4980428;28;93745;-72
2022/09/13 08:38:46;;;;;;;7.22;4.47;;;;;;;;;;4978515;28;93724;-72
2022/09/13 08:41:31;;;;;;;10.10;4.57;;;;;;;;;;4971483;28;94991;-71
2022/09/13 08:44:15;;;;;;;8.65;4.13;;;;;;;;;;4974368;28;93691;-72
2022/09/13 08:46:44;;;;;;;13.93;3.85;;;;;;;;;;4978970;28;92663;-72
2022/09/13 08:49:14;;;;;;;5.18;4.25;;;;;;;;;;4976282;28;93182;-72
2022/09/13 08:51:46;;;;;;;6.90;3.83;;;;;;;;;;4976818;28;93591;-72
2022/09/13 08:54:15;;;;;;;7.50;3.90;;;;;;;;;;4974099;28;93074;-72
2022/09/13 08:57:01;;;;;;;11.35;3.83;;;;;;;;;;4981376;28;93898;-72
2022/09/13 08:59:46;;;;;;;6.60;3.47;;;;;;;;;;4972065;28;91947;-73
2022/09/13 09:02:22;;;;;;;4.10;2.70;;;;;;;;;;4974357;28;92272;-73
2022/09/13 09:05:03;;;;;;;10.00;2.90;;;;;;;;;;4978077;28;93730;-73
2022/09/13 09:07:39;;;;;;;6.25;2.70;;;;;;;;;;4975546;28;94941;-72
2022/09/13 09:10:14;;;;;;;6.72;3.47;;;;;;;;;;4973806;28;94635;-72
2022/09/13 09:12:44;;;;;;;5.65;2.53;;;;;;;;;;4974377;28;94824;-72
2022/09/13 09:15:10;;;;;;;5.15;2.20;;;;;;;;;;4991723;28;92437;-71
2022/09/13 09:17:48;;;;;;;4.03;2.20;;;;;;;;;;4970903;28;93474;-72
2022/09/13 09:20:32;;;;;;;7.20;2.30;;;;;;;;;;4953920;28;92412;-72
2022/09/13 09:23:01;;;;;;;7.75;2.20;;;;;;;;;;4954439;28;93218;-71
2022/09/13 09:25:28;;;;;;;7.25;2.05;;;;;;;;;;4974855;28;92603;-72
2022/09/13 09:27:55;;;;;;;10.50;2.42;;;;;;;;;;4973359;28;92507;-71
2022/09/13 09:30:21;;;;;;;6.13;1.80;;;;;;;;;;4984731;28;93178;-77
2022/09/13 09:32:47;;;;;;;4.97;1.85;;;;;;;;;;4990369;28;95833;-71
2022/09/13 09:35:23;;;;;;;7.53;1.70;;;;;;;;;;4991856;28;94217;-71
2022/09/13 09:37:58;;;;;;;2.20;1.13;;;;;;;;;;4954134;28;93384;-71
2022/09/13 09:40:24;;;;;;;3.22;1.17;;;;;;;;;;4954749;28;92462;-71
2022/09/13 09:42:56;;;;;;;3.50;1.38;;;;;;;;;;4981138;28;93113;-72
2022/09/13 09:45:25;;;;;;;2.85;1.20;;;;;;;;;;4980754;28;93818;-71
2022/09/13 09:47:52;;;;;;;3.00;1.10;;;;;;;;;;4973361;28;92809;-72
2022/09/13 09:50:28;;;;;;;5.97;1.40;;;;;;;;;;4954839;28;93108;-71
2022/09/13 09:52:56;;;;;;;3.33;1.42;;;;;;;;;;4979448;28;93416;-72
2022/09/13 09:55:25;;;;;;;2.58;1.30;;;;;;;;;;4973797;28;92571;-71
2022/09/13 09:57:56;;;;;;;3.05;1.50;;;;;;;;;;4977621;28;94955;-71
2022/09/13 10:00:24;;;;;;;6.68;1.70;;;;;;;;;;4977395;28;92811;-71
2022/09/13 10:02:53;;;;;;;7.13;1.30;;;;;;;;;;4974487;28;93134;-72
2022/09/13 10:05:21;;;;;;;4.10;1.25;;;;;;;;;;4973721;28;93408;-72
2022/09/13 10:07:53;;;;;;;3.83;1.42;;;;;;;;;;4977091;28;92445;-71
2022/09/13 10:10:23;;;;;;;6.97;1.58;;;;;;;;;;4992167;28;93179;-71
2022/09/13 10:12:52;;;;;;;4.03;1.27;;;;;;;;;;4988208;28;93442;-71
2022/09/13 10:15:19;;;;;;;4.00;1.00;;;;;;;;;;4973805;28;92300;-71
2022/09/13 10:18:05;;;;;;;2.22;0.85;;;;;;;;;;4977539;28;92426;-71
2022/09/13 10:21:06;;;;;;;5.57;1.00;;;;;;;;;;4980071;28;92569;-71
2022/09/13 10:23:34;;;;;;;6.47;1.20;;;;;;;;;;4972526;28;95246;-71
2022/09/13 10:26:03;;;;;;;5.53;1.10;;;;;;;;;;4975686;28;93690;-71
2022/09/13 10:28:31;;;;;;;2.42;0.90;;;;;;;;;;4991794;28;92597;-71
2022/09/13 10:31:02;;;;;;;6.82;1.48;;;;;;;;;;4986978;28;93147;-72
2022/09/13 10:33:31;;;;;;;11.80;1.17;;;;;;;;;;4990952;28;93655;-71
2022/09/13 10:35:59;;;;;;;11.65;1.20;;;;;;;;;;4991768;28;92416;-71
2022/09/13 10:38:33;;;;;;;4.00;0.90;;;;;;;;;;4978049;28;93300;-71
2022/09/13 10:41:01;;;;;;;5.43;1.10;;;;;;;;;;4985614;28;94475;-71
2022/09/13 10:43:29;;;;;;;5.00;1.45;;;;;;;;;;4996803;28;92411;-75
2022/09/13 10:45:56;;;;;;;6.78;1.50;;;;;;;;;;4975377;28;95115;-72
2022/09/13 10:48:23;;;;;;;3.83;0.90;;;;;;;;;;4977502;28;95128;-71
2022/09/13 10:51:04;;;;;;;5.43;1.08;;;;;;;;;;5024759;28;95537;-72
2022/09/13 10:53:37;;;;;;;4.05;0.95;;;;;;;;;;4974947;28;93356;-71
2022/09/13 10:56:05;;;;;;;4.63;1.27;;;;;;;;;;4973886;28;92476;-72
2022/09/13 10:58:31;;;;;;;2.88;0.90;;;;;;;;;;4978803;28;94437;-72
2022/09/13 11:01:12;;;;;;;7.03;1.42;;;;;;;;;;4994488;28;93360;-72
2022/09/13 11:03:38;;;;;;;5.93;1.15;;;;;;;;;;4978104;28;93759;-72
2022/09/13 11:06:04;;;;;;;3.78;1.02;;;;;;;;;;4993503;28;93111;-72
2022/09/13 11:08:49;;;;;;;4.45;1.23;;;;;;;;;;4991181;28;92453;-72
2022/09/13 11:11:21;;;;;;;6.03;1.50;;;;;;;;;;4986996;28;93124;-72
2022/09/13 11:14:13;;;;;;;7.07;1.15;;;;;;;;;;4977637;28;95722;-72
2022/09/13 11:16:46;;;;;;;5.30;1.25;;;;;;;;;;4975149;28;92642;-73
2022/09/13 11:19:31;;;;;;;4.43;1.58;;;;;;;;;;4991628;28;93291;-72
2022/09/13 11:21:57;;;;;;;3.90;1.02;;;;;;;;;;4990900;28;93426;-72
2022/09/13 11:24:29;;;;;;;4.47;1.20;;;;;;;;;;4975553;28;92449;-71
2022/09/13 11:27:01;;;;;;;5.30;1.50;;;;;;;;;;4980193;28;93117;-71
2022/09/13 11:29:45;;;;;;;2.83;1.10;;;;;;;;;;4975884;28;92478;-71
2022/09/13 11:32:20;;;;;;;4.60;1.20;;;;;;;;;;4976602;28;93412;-71
2022/09/13 11:35:01;;;;;;;2.85;1.10;;;;;;;;;;4975060;28;94048;-71
2022/09/13 11:37:37;;;;;;;3.72;1.10;;;;;;;;;;4975025;28;92556;-70
2022/09/13 11:40:22;;;;;;;4.18;1.10;;;;;;;;;;4981643;28;96787;-70
2022/09/13 11:42:57;;;;;;;3.47;1.00;;;;;;;;;;4994334;28;93654;-71
2022/09/13 11:45:25;;;;;;;8.70;1.00;;;;;;;;;;4976144;28;93971;-71
2022/09/13 11:47:54;;;;;;;4.78;0.80;;;;;;;;;;4975687;28;93612;-71
2022/09/13 11:50:32;;;;;;;5.22;1.08;;;;;;;;;;4982162;28;93792;-71
2022/09/13 11:53:05;;;;;;;9.07;1.42;;;;;;;;;;4990979;28;93145;-72
2022/09/13 11:55:35;;;;;;;3.65;1.00;;;;;;;;;;4982780;28;93498;-72
2022/09/13 11:58:06;;;;;;;12.50;1.40;;;;;;;;;;4981535;28;91793;-79
2022/09/13 12:00:36;;;;;;;7.20;1.65;;;;;;;;;;4995041;28;92463;-73
2022/09/13 12:03:20;;;;;;;11.27;1.92;;;;;;;;;;4985150;28;94576;-73
2022/09/13 12:05:50;;;;;;;10.40;1.25;;;;;;;;;;4973043;28;94845;-72
2022/09/13 12:08:22;;;;;;;8.48;1.42;;;;;;;;;;4961808;28;95586;-72
2022/09/13 12:10:51;;;;;;;5.85;1.15;;;;;;;;;;4981297;28;93455;-72
2022/09/13 12:13:22;;;;;;;10.50;1.70;;;;;;;;;;4988490;28;92596;-72
2022/09/13 12:15:50;;;;;;;3.67;1.30;;;;;;;;;;4973194;28;93807;-72
2022/09/13 12:18:21;;;;;;;6.78;1.10;;;;;;;;;;4975358;28;92773;-73
2022/09/13 12:20:52;;;;;;;4.25;1.00;;;;;;;;;;4989700;28;93448;-73
2022/09/13 12:23:41;;;;;;;6.90;1.17;;;;;;;;;;4974806;28;92666;-73
2022/09/13 12:26:22;;;;;;;2.97;0.90;;;;;;;;;;4991676;28;94163;-73
2022/09/13 12:28:53;;;;;;;2.92;0.98;;;;;;;;;;4993434;28;93122;-71
2022/09/13 12:31:25;;;;;;;3.63;1.05;;;;;;;;;;4978713;28;94874;-72
2022/09/13 12:33:52;;;;;;;4.38;0.93;;;;;;;;;;4974143;28;92435;-72
2022/09/13 12:36:18;;;;;;;3.50;0.95;;;;;;;;;;4977474;28;93251;-72
2022/09/13 12:38:54;;;;;;;6.93;1.13;;;;;;;;;;4991738;28;92477;-72
2022/09/13 12:41:29;;;;;;;3.78;0.90;;;;;;;;;;4976105;28;96722;-76
2022/09/13 12:44:15;;;;;;;3.88;0.80;;;;;;;;;;4990165;28;93479;-72
2022/09/13 12:46:44;;;;;;;4.43;1.10;;;;;;;;;;4990347;28;92427;-74
2022/09/13 12:49:33;;;;;;;3.47;1.27;;;;;;;;;;4977090;28;96222;-74
2022/09/13 12:52:14;;;;;;;4.20;1.25;;;;;;;;;;4969827;28;93455;-74
2022/09/13 12:54:49;;;;;;;2.75;0.85;;;;;;;;;;4974887;28;92529;-74
2022/09/13 12:57:18;;;;;;;8.55;1.10;;;;;;;;;;4973418;28;94741;-74
2022/09/13 12:59:52;;;;;;;6.15;0.95;;;;;;;;;;4992097;28;93397;-74
2022/09/13 13:02:38;;;;;;;4.38;1.10;;;;;;;;;;4974188;28;93183;-74
2022/09/13 13:05:16;;;;;;;12.20;1.42;;;;;;;;;;4991575;28;95450;-74
2022/09/13 13:07:50;;;;;;;6.22;1.02;;;;;;;;;;4984546;28;92524;-74
2022/09/13 13:10:29;;;;;;;4.30;0.90;;;;;;;;;;4974541;28;93137;-74
2022/09/13 13:12:57;;;;;;;7.47;1.67;;;;;;;;;;4971280;28;93462;-74
2022/09/13 13:15:26;;;;;;;8.57;1.50;;;;;;;;;;4973538;28;91803;-74
2022/09/13 13:17:52;;;;;;;;;;;;;;;;;;4972728;28;92690;-72
2022/09/13 13:20:37;;;;;;;7.82;1.33;;;;;;;;;;4974067;28;123932;-70
2022/09/13 13:23:14;;;;;;;7.40;1.05;;;;;;;;;;4994740;28;94807;-78
2022/09/13 13:25:59;;;;;;;12.63;1.10;;;;;;;;;;4974566;28;93408;-72
2022/09/13 13:28:45;;;;;;;2.60;1.00;;;;;;;;;;4987000;28;92560;-73
2022/09/13 13:31:23;;;;;;;7.57;1.02;;;;;;;;;;4969491;28;93411;-75
2022/09/13 13:34:04;;;;;;;3.75;1.13;;;;;;;;;;4990014;28;93740;-80
2022/09/13 13:36:41;;;;;;;2.30;0.80;;;;;;;;;;4977383;28;92457;-73
2022/09/13 13:39:23;;;;;;;2.13;1.20;;;;;;;;;;4990678;28;93146;-78
2022/09/13 13:41:58;;;;;;;5.00;1.05;;;;;;;;;;4991473;28;93562;-77
2022/09/13 13:44:25;;;;;;;5.47;1.20;;;;;;;;;;4988970;28;92454;-77
2022/09/13 13:46:53;;;;;;;58.97;5.97;;;;;;;;;;4981867;28;93812;-77
2022/09/13 13:49:31;;;;;;;20.77;2.45;;;;;;;;;;4974989;28;94874;-76
2022/09/13 13:52:07;;;;;;;4.22;1.15;;;;;;;;;;4990905;28;95535;-75
2022/09/13 13:54:48;;;;;;;10.40;1.35;;;;;;;;;;4977373;28;94095;-75
2022/09/13 13:57:37;;;;;;;6.88;1.00;;;;;;;;;;4982277;28;92549;-75
2022/09/13 14:00:14;;;;;;;18.27;2.00;;;;;;;;;;4958156;28;95341;-75
2022/09/13 14:02:40;;;;;;;7.45;1.60;;;;;;;;;;4971510;28;93568;-75
2022/09/13 14:05:09;;;;;;;6.97;1.45;;;;;;;;;;4992366;28;92442;-76
2022/09/13 14:07:51;;;;;;;6.32;1.00;;;;;;;;;;4979654;28;93317;-75
2022/09/13 14:10:21;;;;;;;3.55;0.90;;;;;;;;;;4976811;28;92428;-75
2022/09/13 14:12:56;;;;;;;5.60;1.10;;;;;;;;;;4975224;28;93852;-75
2022/09/13 14:15:39;;;;;;;6.95;1.23;;;;;;;;;;4975596;28;96067;-75
2022/09/13 14:18:11;;;;;;;4.82;0.93;;;;;;;;;;4971195;28;92800;-75
2022/09/13 14:20:37;;;;;;;3.30;0.98;;;;;;;;;;4957384;28;93212;-75
2022/09/13 14:23:30;;;;;;;2.17;0.65;;;;;;;;;;4971568;28;96205;-75
2022/09/13 14:25:57;;;;;;;10.10;1.40;;;;;;;;;;4974872;28;92572;-75
2022/09/13 14:28:24;;;;;;;12.13;1.83;;;;;;;;;;4980235;28;93097;-75
2022/09/13 14:30:52;;;;;;;3.25;1.10;;;;;;;;;;4979981;28;93403;-76
2022/09/13 14:33:22;;;;;;;14.20;1.27;;;;;;;;;;4975644;28;93330;-76
2022/09/13 14:35:56;;;;;;;5.10;1.15;;;;;;;;;;4982070;28;95198;-76
2022/09/13 14:38:24;;;;;;;3.15;0.77;;;;;;;;;;4984619;28;92494;-74
2022/09/13 14:40:51;;;;;;;2.03;0.80;;;;;;;;;;4973773;28;94856;-75
2022/09/13 14:43:18;;;;;;;10.57;1.00;;;;;;;;;;4975105;28;94939;-76
2022/09/13 14:45:47;;;;;;;9.65;1.40;;;;;;;;;;4976869;28;92449;-76
2022/09/13 14:48:24;;;;;;;9.00;1.50;;;;;;;;;;4974657;28;93389;-77
2022/09/13 14:50:53;;;;;;;5.70;1.00;;;;;;;;;;4975014;28;95026;-77
2022/09/13 14:53:21;;;;;;;5.57;1.00;;;;;;;;;;4999131;28;92313;-78
2022/09/13 14:55:52;;;;;;;5.45;1.20;;;;;;;;;;4988548;28;93373;-77